Time;durP1;ratioP1;P1;durP2;ratioP2;P2;SDS_P1;SDS_P2;PMS_P1;PMS_P2;Temp;Humidity;BMP_temperature;BMP_pressure;BME280_temperature;BME280_humidity;BME280_pressure;Samples;Min_cycle;Max_cycle;Signal;HPM_P1;HPM_P2
2022/05/29 00:01:19;;;;;;;3.45;1.10;;;;;;;20.19;46.89;101964.72;5085268;28;20044;-48
2022/05/29 00:03:49;;;;;;;1.02;0.80;;;;;;;20.18;47.23;101971.06;5083577;28;20048;-50
2022/05/29 00:06:16;;;;;;;1.38;0.70;;;;;;;20.17;47.04;101962.13;5080421;28;20045;-50
2022/05/29 00:08:44;;;;;;;3.45;1.27;;;;;;;20.16;46.92;101956.91;5080225;28;20049;-51
2022/05/29 00:11:13;;;;;;;2.65;0.85;;;;;;;20.15;46.84;101961.44;5081338;28;20036;-49
2022/05/29 00:13:42;;;;;;;1.83;0.85;;;;;;;20.15;47.34;101958.75;5079551;28;20056;-49
2022/05/29 00:16:08;;;;;;;2.22;1.00;;;;;;;20.15;47.61;101963.28;5083085;28;20040;-47
2022/05/29 00:18:37;;;;;;;2.85;1.08;;;;;;;20.13;47.12;101958.03;5083647;28;20050;-46
2022/05/29 00:21:06;;;;;;;1.83;0.73;;;;;;;20.12;46.91;101952.78;5083077;28;20155;-47
2022/05/29 00:23:39;;;;;;;3.55;0.98;;;;;;;20.11;47.22;101951.94;5084470;28;20039;-47
2022/05/29 00:26:06;;;;;;;1.95;0.80;;;;;;;20.11;47.41;101946.56;5079866;28;20050;-48
2022/05/29 00:28:33;;;;;;;2.90;0.80;;;;;;;20.10;46.89;101944.88;5081444;28;20040;-47
2022/05/29 00:30:59;;;;;;;1.65;0.68;;;;;;;20.10;47.36;101944.00;5078606;28;20395;-46
2022/05/29 00:33:26;;;;;;;2.28;0.70;;;;;;;20.08;47.45;101936.06;5082034;28;20127;-45
2022/05/29 00:35:53;;;;;;;1.52;0.80;;;;;;;20.08;47.08;101930.69;5083753;28;20044;-47
2022/05/29 00:38:19;;;;;;;1.30;1.08;;;;;;;20.08;47.22;101936.06;5079143;28;20120;-51
2022/05/29 00:41:04;;;;;;;2.00;0.57;;;;;;;20.07;46.91;101933.53;5079569;28;20040;-50
2022/05/29 00:43:31;;;;;;;1.73;0.80;;;;;;;20.07;47.71;101937.06;5078785;28;20051;-49
2022/05/29 00:46:00;;;;;;;1.05;0.60;;;;;;;20.06;46.90;101938.06;5078967;28;20059;-48
2022/05/29 00:48:27;;;;;;;3.28;1.00;;;;;;;20.05;47.59;101936.34;5081941;28;20048;-49
2022/05/29 00:50:59;;;;;;;1.63;0.85;;;;;;;20.05;47.62;101932.81;5083787;28;20044;-48
2022/05/29 00:53:28;;;;;;;2.83;1.10;;;;;;;20.05;47.07;101924.72;5079588;28;20047;-48
2022/05/29 00:56:10;;;;;;;1.55;0.70;;;;;;;20.04;47.14;101931.13;5084798;28;20043;-48
2022/05/29 00:58:37;;;;;;;1.95;0.80;;;;;;;20.04;46.85;101931.13;5083861;28;20056;-48
2022/05/29 01:01:04;;;;;;;1.58;1.08;;;;;;;20.02;47.33;101922.31;5081965;28;20058;-49
2022/05/29 01:03:30;;;;;;;2.67;0.77;;;;;;;20.03;47.39;101932.13;5077217;28;20036;-45
2022/05/29 01:05:57;;;;;;;3.13;1.05;;;;;;;20.03;47.62;101918.66;5080955;28;20139;-50
2022/05/29 01:08:34;;;;;;;1.88;0.65;;;;;;;20.01;46.90;101917.94;5080434;28;20414;-48
2022/05/29 01:11:16;;;;;;;2.70;0.90;;;;;;;19.99;47.05;101917.25;5083185;28;20044;-47
2022/05/29 01:13:55;;;;;;;1.70;1.00;;;;;;;19.99;47.14;101910.00;5083523;28;20423;-49
2022/05/29 01:16:45;;;;;;;2.42;0.70;;;;;;;19.98;46.96;101913.69;5086705;28;20052;-47
2022/05/29 01:19:18;;;;;;;1.88;0.80;;;;;;;19.99;47.00;101910.00;5082118;28;20123;-46
2022/05/29 01:22:08;;;;;;;3.67;0.80;;;;;;;19.96;47.54;101902.22;5079908;28;20060;-48
2022/05/29 01:24:57;;;;;;;2.65;0.82;;;;;;;19.96;46.98;101902.22;5078766;28;20385;-48
2022/05/29 01:27:48;;;;;;;1.50;0.77;;;;;;;19.95;47.79;101898.66;5080933;28;20127;-49
2022/05/29 01:30:19;;;;;;;3.13;0.90;;;;;;;19.94;47.72;101894.28;5081849;28;20054;-47
2022/05/29 01:32:54;;;;;;;2.75;0.93;;;;;;;19.94;47.55;101893.44;5079370;28;20153;-49
2022/05/29 01:35:27;;;;;;;1.83;1.00;;;;;;;19.92;47.34;101896.25;5084336;28;20040;-46
2022/05/29 01:38:21;;;;;;;2.80;1.00;;;;;;;19.92;47.33;101887.34;5086286;28;20066;-50
2022/05/29 01:40:51;;;;;;;3.58;0.90;;;;;;;19.93;47.64;101889.03;5084127;28;20318;-48
2022/05/29 01:43:26;;;;;;;2.75;1.10;;;;;;;19.92;47.72;101887.34;5081243;28;20041;-50
2022/05/29 01:46:07;;;;;;;1.80;0.80;;;;;;;19.92;47.67;101890.03;5077709;28;20466;-47
2022/05/29 01:48:38;;;;;;;3.35;0.90;;;;;;;19.91;47.23;101891.88;5075467;28;20048;-49
2022/05/29 01:51:13;;;;;;;1.95;0.80;;;;;;;19.92;47.67;101882.81;5077023;28;20062;-43
2022/05/29 01:53:47;;;;;;;1.98;0.90;;;;;;;19.92;47.03;101881.97;5077373;28;20210;-47
2022/05/29 01:56:23;;;;;;;3.38;0.98;;;;;;;19.90;47.18;101878.53;5081775;28;20040;-50
2022/05/29 01:58:55;;;;;;;3.67;1.00;;;;;;;19.90;47.82;101874.03;5080710;28;20074;-48
2022/05/29 02:01:27;;;;;;;2.17;0.98;;;;;;;19.90;47.15;101870.47;5080534;28;20719;-50
2022/05/29 02:03:56;;;;;;;3.10;1.23;;;;;;;19.90;47.64;101876.72;5080438;28;20128;-46
2022/05/29 02:06:29;;;;;;;1.45;0.77;;;;;;;19.90;47.17;101875.84;5083989;28;20113;-49
2022/05/29 02:09:03;;;;;;;3.30;0.82;;;;;;;19.89;47.64;101866.94;5079232;28;20063;-50
2022/05/29 02:11:31;;;;;;;1.73;0.85;;;;;;;19.90;47.41;101865.09;5077671;28;20122;-49
2022/05/29 02:14:14;;;;;;;1.42;0.80;;;;;;;19.89;47.07;101868.78;5079535;28;20044;-48
2022/05/29 02:16:56;;;;;;;3.20;0.90;;;;;;;19.89;47.67;101866.09;5082166;28;20413;-48
2022/05/29 02:19:29;;;;;;;2.60;0.90;;;;;;;19.89;46.93;101869.63;5078985;28;20072;-50
2022/05/29 02:22:18;;;;;;;3.40;1.25;;;;;;;19.89;47.81;101866.09;5078250;28;20044;-46
2022/05/29 02:24:50;;;;;;;1.77;0.77;;;;;;;19.88;47.20;101865.25;5078253;28;20431;-49
2022/05/29 02:27:29;;;;;;;1.02;0.60;;;;;;;19.88;47.35;101865.25;5080371;28;20132;-46
2022/05/29 02:29:57;;;;;;;2.03;0.70;;;;;;;19.89;47.79;101858.88;5082562;28;20350;-47
2022/05/29 02:32:48;;;;;;;1.83;0.80;;;;;;;19.88;47.13;101849.09;5079504;28;20278;-49
2022/05/29 02:35:27;;;;;;;2.33;1.17;;;;;;;19.87;47.13;101841.19;5078745;28;20036;-47
2022/05/29 02:38:05;;;;;;;4.97;0.88;;;;;;;19.87;47.70;101842.03;5078302;28;20048;-48
2022/05/29 02:40:50;;;;;;;2.30;1.00;;;;;;;19.85;47.24;101843.16;5076374;28;20056;-48
2022/05/29 02:43:49;;;;;;;2.22;0.90;;;;;;;19.85;47.80;101844.00;5077764;28;20049;-50
2022/05/29 02:46:22;;;;;;;1.77;0.80;;;;;;;19.86;47.16;101834.94;5076915;28;20420;-47
2022/05/29 02:49:01;;;;;;;1.83;1.00;;;;;;;19.87;47.12;101838.50;5078099;28;20048;-47
2022/05/29 02:51:46;;;;;;;2.38;0.80;;;;;;;19.85;47.95;101827.00;5081306;28;20481;-48
2022/05/29 02:54:21;;;;;;;1.00;0.65;;;;;;;19.85;47.51;101833.22;5081971;28;20047;-46
2022/05/29 02:56:47;;;;;;;2.00;0.90;;;;;;;19.84;47.61;101831.53;5079197;28;20411;-46
2022/05/29 02:59:14;;;;;;;1.92;0.80;;;;;;;19.85;47.85;101829.69;5077323;28;20055;-49
2022/05/29 03:02:02;;;;;;;1.00;0.60;;;;;;;19.84;47.44;101831.53;5080112;28;20052;-46
2022/05/29 03:04:36;;;;;;;1.85;0.70;;;;;;;19.84;47.79;101833.38;5080415;28;20040;-48
2022/05/29 03:07:28;;;;;;;0.75;0.43;;;;;;;19.83;47.85;101840.59;5079623;28;20064;-49
2022/05/29 03:10:09;;;;;;;1.58;0.70;;;;;;;19.83;47.94;101834.38;5081031;28;20063;-48
2022/05/29 03:12:45;;;;;;;3.10;0.85;;;;;;;19.83;48.03;101837.91;5083581;28;20048;-50
2022/05/29 03:15:33;;;;;;;1.15;0.68;;;;;;;19.82;47.82;101829.97;5082727;28;20051;-50
2022/05/29 03:18:20;;;;;;;1.38;0.63;;;;;;;19.81;47.84;101834.50;5086371;28;20050;-50
2022/05/29 03:21:02;;;;;;;3.15;0.70;;;;;;;19.81;47.82;101826.44;5081576;28;20066;-50
2022/05/29 03:24:02;;;;;;;1.50;0.70;;;;;;;19.79;47.79;101839.19;5077900;28;20036;-50
2022/05/29 03:26:48;;;;;;;2.40;1.10;;;;;;;19.80;47.51;101830.13;5080823;28;20040;-47
2022/05/29 03:29:24;;;;;;;2.05;0.70;;;;;;;19.81;47.54;101828.28;5083009;28;20059;-49
2022/05/29 03:31:52;;;;;;;0.95;0.57;;;;;;;19.82;47.73;101829.97;5081825;28;20058;-47
2022/05/29 03:34:21;;;;;;;2.95;0.75;;;;;;;19.81;47.62;101828.28;5083069;28;20093;-49
2022/05/29 03:36:50;;;;;;;1.70;0.60;;;;;;;19.81;47.35;101825.59;5086019;28;20050;-48
2022/05/29 03:39:18;;;;;;;2.67;0.90;;;;;;;19.81;47.82;101822.91;5085146;28;20322;-48
2022/05/29 03:41:47;;;;;;;1.70;0.88;;;;;;;19.80;47.70;101810.44;5082792;28;20055;-47
2022/05/29 03:44:17;;;;;;;2.83;0.73;;;;;;;19.80;48.00;101816.66;5081718;28;20052;-48
2022/05/29 03:46:44;;;;;;;1.30;0.57;;;;;;;19.81;47.48;101817.50;5080523;28;20593;-47
2022/05/29 03:49:16;;;;;;;1.70;0.80;;;;;;;19.81;47.98;101810.28;5080169;28;20032;-49
2022/05/29 03:51:43;;;;;;;1.65;0.80;;;;;;;19.82;47.43;101805.75;5078666;28;20098;-47
2022/05/29 03:54:11;;;;;;;1.98;0.75;;;;;;;19.80;47.80;101805.06;5082258;28;20041;-46
2022/05/29 03:56:38;;;;;;;1.52;0.77;;;;;;;19.80;47.43;101805.06;5081828;28;20228;-50
2022/05/29 03:59:05;;;;;;;1.13;0.50;;;;;;;19.81;47.87;101812.13;5079988;28;20055;-46
2022/05/29 04:01:32;;;;;;;1.45;0.60;;;;;;;19.81;47.38;101812.13;5079111;28;20416;-47
2022/05/29 04:03:59;;;;;;;2.28;0.70;;;;;;;19.80;47.98;101805.06;5082417;28;20086;-49
2022/05/29 04:06:28;;;;;;;1.00;0.60;;;;;;;19.82;47.34;101803.06;5082100;28;20058;-48
2022/05/29 04:14:29;;;;;;;2.00;0.70;;;;;;;19.82;47.28;101798.56;5081490;28;20139;-47
2022/05/29 04:16:55;;;;;;;2.25;0.82;;;;;;;19.83;47.23;101799.41;5084071;28;20044;-49
2022/05/29 04:19:22;;;;;;;3.00;0.90;;;;;;;19.83;47.68;101797.56;5081306;28;20046;-47
2022/05/29 04:21:50;;;;;;;3.22;0.70;;;;;;;19.83;47.76;101792.19;5082605;28;20150;-51
2022/05/29 04:24:19;;;;;;;1.77;0.80;;;;;;;19.84;47.78;101791.19;5079948;28;20068;-47
2022/05/29 04:26:47;;;;;;;2.08;0.82;;;;;;;19.86;47.52;101791.03;5082427;28;20066;-46
2022/05/29 04:29:15;;;;;;;1.48;0.80;;;;;;;19.85;47.29;101798.25;5082471;28;20114;-49
2022/05/29 04:34:32;;;;;;;1.35;0.60;;;;;;;19.86;47.66;101783.84;5084656;28;20040;-48
2022/05/29 04:36:59;;;;;;;2.47;1.10;;;;;;;19.87;47.36;101790.91;5083993;28;20416;-46
2022/05/29 04:39:26;;;;;;;1.63;0.70;;;;;;;19.87;47.34;101787.38;5081720;28;20040;-46
2022/05/29 04:41:52;;;;;;;1.25;0.57;;;;;;;19.88;47.71;101791.75;5084872;28;20123;-47
2022/05/29 04:44:19;;;;;;;1.38;0.77;;;;;;;19.89;47.72;101801.50;5080584;28;20038;-47
2022/05/29 04:46:45;;;;;;;2.10;0.70;;;;;;;19.88;46.92;101789.06;5078512;28;20045;-49
2022/05/29 04:49:12;;;;;;;2.05;0.82;;;;;;;19.87;47.10;101788.22;5078593;28;20336;-48
2022/05/29 04:51:38;;;;;;;1.42;0.60;;;;;;;19.88;47.05;101787.22;5086883;28;20048;-45
2022/05/29 04:54:05;;;;;;;0.70;0.50;;;;;;;19.88;47.00;101789.91;5087457;28;20045;-49
2022/05/29 04:56:31;;;;;;;1.80;0.60;;;;;;;19.89;47.42;101785.38;5087949;28;20044;-46
2022/05/29 04:58:58;;;;;;;1.98;0.82;;;;;;;19.87;47.87;101780.16;5087127;28;20048;-46
2022/05/29 05:01:24;;;;;;;2.15;0.70;;;;;;;19.89;47.02;101790.75;5079062;28;20050;-51
2022/05/29 05:03:51;;;;;;;1.65;0.70;;;;;;;19.89;47.20;101783.53;5079331;28;20262;-47
2022/05/29 05:06:18;;;;;;;1.60;0.70;;;;;;;19.90;47.13;101787.06;5080332;28;20052;-47
2022/05/29 05:08:44;;;;;;;2.28;0.60;;;;;;;19.90;47.11;101781.69;5079989;28;20079;-46
2022/05/29 05:11:11;;;;;;;1.88;0.68;;;;;;;19.90;47.02;101777.19;5080336;28;20043;-47
2022/05/29 05:13:37;;;;;;;1.40;0.60;;;;;;;19.90;46.85;101777.19;5080955;28;20080;-48
2022/05/29 05:16:05;;;;;;;1.10;0.60;;;;;;;19.91;47.69;101778.88;5084433;28;20052;-47
2022/05/29 05:18:32;;;;;;;1.85;0.60;;;;;;;19.93;47.50;101784.09;5086221;28;20078;-48
2022/05/29 05:20:59;;;;;;;1.60;0.80;;;;;;;19.93;47.04;101784.09;5080750;28;20045;-49
2022/05/29 05:23:27;;;;;;;1.10;0.80;;;;;;;19.92;47.04;101779.72;5080855;28;20040;-49
2022/05/29 05:25:53;;;;;;;1.52;0.70;;;;;;;19.92;47.34;101777.88;5078376;28;20044;-47
2022/05/29 05:28:20;;;;;;;2.08;0.73;;;;;;;19.92;47.44;101782.41;5110189;27;20442;-49
2022/05/29 05:30:47;;;;;;;1.88;0.77;;;;;;;19.90;47.53;101766.41;5078012;28;20045;-47
2022/05/29 05:33:14;;;;;;;1.70;0.82;;;;;;;19.91;47.51;101776.16;5077614;28;20131;-47
2022/05/29 05:35:45;;;;;;;2.03;0.65;;;;;;;19.91;47.52;101768.09;5079450;28;20047;-48
2022/05/29 05:38:12;;;;;;;1.33;0.50;;;;;;;19.92;47.45;101768.94;5080967;28;20040;-48
2022/05/29 05:40:38;;;;;;;1.67;0.60;;;;;;;19.93;47.05;101762.56;5077586;28;20490;-46
2022/05/29 05:43:05;;;;;;;1.10;0.50;;;;;;;19.93;47.12;101760.72;5080605;28;20044;-48
2022/05/29 05:45:32;;;;;;;1.98;0.70;;;;;;;19.95;47.60;101763.28;5079484;28;20472;-49
2022/05/29 05:47:59;;;;;;;2.25;0.70;;;;;;;19.96;47.04;101764.97;5080956;28;20078;-50
2022/05/29 05:50:25;;;;;;;2.00;0.77;;;;;;;19.97;47.20;101767.50;5079092;28;20066;-46
2022/05/29 05:52:52;;;;;;;1.27;0.90;;;;;;;19.97;47.22;101767.50;5079616;28;20508;-47
2022/05/29 05:55:19;;;;;;;2.13;0.90;;;;;;;20.00;47.02;101765.53;5080154;28;20139;-49
2022/05/29 05:57:45;;;;;;;1.27;0.50;;;;;;;20.01;46.74;101764.53;5077176;28;20060;-45
2022/05/29 06:00:15;;;;;;;1.20;0.65;;;;;;;20.02;46.82;101767.09;5077811;28;20110;-46
2022/05/29 06:02:42;;;;;;;1.90;0.68;;;;;;;20.03;47.33;101766.09;5078788;28;20040;-47
2022/05/29 06:05:11;;;;;;;1.77;0.60;;;;;;;20.05;46.74;101761.41;5077460;28;20093;-49
2022/05/29 06:07:38;;;;;;;3.08;0.80;;;;;;;20.06;47.27;101765.81;5078473;28;20048;-47
2022/05/29 06:10:06;;;;;;;1.90;0.95;;;;;;;20.07;46.80;101761.28;5082777;28;20123;-49
2022/05/29 06:12:32;;;;;;;1.27;0.70;;;;;;;20.08;47.04;101757.59;5086328;28;20040;-47
2022/05/29 06:14:59;;;;;;;1.42;0.65;;;;;;;20.09;47.36;101770.03;5082725;28;20046;-49
2022/05/29 06:17:29;;;;;;;2.15;0.70;;;;;;;20.09;47.04;101770.88;5082410;28;20563;-47
2022/05/29 06:19:56;;;;;;;1.08;0.60;;;;;;;20.08;47.33;101769.19;5079042;28;20048;-48
2022/05/29 06:22:23;;;;;;;1.60;0.70;;;;;;;20.09;47.12;101776.28;5077942;28;20138;-48
2022/05/29 06:24:49;;;;;;;1.40;0.90;;;;;;;20.09;46.75;101775.44;5075690;28;20589;-51
2022/05/29 06:27:16;;;;;;;2.05;0.70;;;;;;;20.09;46.87;101773.59;5081050;28;20481;-51
2022/05/29 06:29:43;;;;;;;0.82;0.55;;;;;;;20.10;46.71;101771.75;5079806;28;20044;-49
2022/05/29 06:32:12;;;;;;;1.05;0.60;;;;;;;20.09;47.45;101778.13;5083274;28;20042;-46
2022/05/29 06:34:39;;;;;;;1.80;0.75;;;;;;;20.10;47.23;101775.31;5087205;28;20047;-47
2022/05/29 06:37:06;;;;;;;2.17;0.80;;;;;;;20.11;47.25;101777.00;5087856;28;20052;-47
2022/05/29 06:39:37;;;;;;;1.50;0.60;;;;;;;20.12;46.64;101773.31;5081333;28;20044;-46
2022/05/29 06:42:05;;;;;;;1.08;0.43;;;;;;;20.13;46.77;101771.47;5081681;28;20051;-48
2022/05/29 06:44:32;;;;;;;1.92;0.70;;;;;;;20.13;46.65;101763.38;5111728;27;20051;-48
2022/05/29 06:47:03;;;;;;;1.00;0.43;;;;;;;20.12;46.75;101767.91;5079314;28;20039;-50
2022/05/29 06:49:30;;;;;;;1.58;0.70;;;;;;;20.12;46.51;101765.22;5076311;28;20043;-50
2022/05/29 06:51:57;;;;;;;4.45;0.77;;;;;;;20.14;47.15;101765.94;5082954;28;20036;-49
2022/05/29 06:54:23;;;;;;;1.73;0.85;;;;;;;20.14;46.72;101763.25;5081446;28;20412;-46
2022/05/29 06:56:50;;;;;;;1.83;0.60;;;;;;;20.15;46.61;101753.34;5084225;28;20050;-49
2022/05/29 06:59:17;;;;;;;1.70;0.63;;;;;;;20.17;46.87;101759.41;5079476;28;20044;-47
2022/05/29 07:07:15;;;;;;;1.55;0.90;;;;;;;20.19;46.84;101749.34;5081701;28;20043;-49
2022/05/29 07:09:42;;;;;;;1.77;0.68;;;;;;;20.21;46.97;101756.28;5081799;28;20071;-48
2022/05/29 07:12:19;;;;;;;1.15;0.60;;;;;;;20.21;46.72;101753.56;5081683;28;20032;-49
2022/05/29 07:15:00;;;;;;;1.60;0.70;;;;;;;20.23;47.08;101763.38;5081773;28;20153;-46
2022/05/29 07:17:27;;;;;;;1.60;0.70;;;;;;;20.24;46.41;101757.84;5080198;28;20044;-51
2022/05/29 07:19:54;;;;;;;1.50;0.60;;;;;;;20.25;46.53;101759.53;5081039;28;20373;-44
2022/05/29 07:22:21;;;;;;;1.55;0.88;;;;;;;20.25;46.25;101754.13;5081933;28;20127;-47
2022/05/29 07:24:48;;;;;;;0.82;0.50;;;;;;;20.26;46.84;101750.47;5082560;28;20159;-50
2022/05/29 07:27:14;;;;;;;1.52;0.68;;;;;;;20.27;46.75;101744.09;5081274;28;20041;-49
2022/05/29 07:29:42;;;;;;;2.00;0.65;;;;;;;20.29;46.35;101749.31;5082939;28;20048;-48
2022/05/29 07:32:11;;;;;;;2.15;1.02;;;;;;;20.31;46.77;101747.34;5078605;28;20429;-48
2022/05/29 07:34:38;;;;;;;2.67;0.70;;;;;;;20.31;46.48;101748.19;5082900;28;20079;-46
2022/05/29 07:37:12;;;;;;;2.35;0.70;;;;;;;20.32;46.78;101744.50;5081633;28;20328;-48
2022/05/29 07:39:45;;;;;;;1.50;0.45;;;;;;;20.34;46.53;101749.72;5083183;28;20062;-46
2022/05/29 07:44:57;;;;;;;1.13;0.60;;;;;;;20.37;46.13;101744.88;5082161;28;20056;-47
2022/05/29 07:47:27;;;;;;;2.95;0.70;;;;;;;20.38;46.14;101748.44;5081110;28;20044;-48
2022/05/29 07:49:58;;;;;;;3.08;0.88;;;;;;;20.36;46.19;101745.06;5083441;28;20051;-47
2022/05/29 07:52:25;;;;;;;3.75;0.77;;;;;;;20.38;46.77;101737.66;5082375;28;20445;-48
2022/05/29 07:54:52;;;;;;;1.85;0.70;;;;;;;20.39;45.99;101748.28;5083612;28;20049;-48
2022/05/29 07:57:19;;;;;;;1.90;1.00;;;;;;;20.40;46.09;101746.44;5085760;28;20047;-48
2022/05/29 07:59:46;;;;;;;0.75;0.52;;;;;;;20.40;45.96;101750.00;5081851;28;20458;-47
2022/05/29 08:02:12;;;;;;;1.67;0.60;;;;;;;20.40;46.12;101744.59;5080229;28;20040;-48
2022/05/29 08:04:40;;;;;;;1.90;0.50;;;;;;;20.41;46.32;101738.22;5079558;28;20079;-47
2022/05/29 08:07:06;;;;;;;1.00;0.50;;;;;;;20.43;46.71;101747.00;5082576;28;20044;-48
2022/05/29 08:09:33;;;;;;;1.98;0.70;;;;;;;20.43;46.63;101740.78;5084624;28;20127;-49
2022/05/29 08:12:00;;;;;;;1.33;0.70;;;;;;;20.43;45.95;101738.94;5120091;27;20119;-47
2022/05/29 08:14:27;;;;;;;1.77;0.63;;;;;;;20.44;46.62;101743.31;5091787;28;20047;-47
2022/05/29 08:16:53;;;;;;;2.67;0.60;;;;;;;20.45;46.58;101750.38;5085076;28;20044;-48
2022/05/29 08:19:20;;;;;;;1.42;0.70;;;;;;;20.45;45.97;101742.31;5087605;28;20039;-50
2022/05/29 08:21:46;;;;;;;1.25;0.60;;;;;;;20.47;46.63;101747.56;5085427;28;20055;-45
2022/05/29 08:30:38;;;;;;;2.10;0.80;;;;;;;20.49;45.88;101745.59;5084901;28;20127;-46
2022/05/29 08:33:16;;;;;;;1.08;0.60;;;;;;;20.50;45.81;101746.44;5086549;28;20044;-48
2022/05/29 08:35:45;;;;;;;1.77;0.85;;;;;;;20.50;46.46;101732.97;5084783;28;20036;-48
2022/05/29 08:38:15;;;;;;;2.42;0.85;;;;;;;20.51;46.16;101742.75;5085417;28;20056;-48
2022/05/29 08:40:46;;;;;;;1.95;0.60;;;;;;;20.51;45.86;101742.75;5083906;28;20070;-49
2022/05/29 08:43:33;;;;;;;1.25;0.50;;;;;;;20.52;46.50;101742.59;5080116;28;20132;-46
2022/05/29 08:46:05;;;;;;;1.83;1.10;;;;;;;20.54;46.40;101737.06;5077166;28;20498;-51
2022/05/29 08:48:32;;;;;;;1.92;0.80;;;;;;;20.55;46.42;101731.53;5078953;28;20044;-47
2022/05/29 08:51:17;;;;;;;1.35;0.57;;;;;;;20.56;46.36;101735.09;5081331;28;20059;-49
2022/05/29 08:54:09;;;;;;;1.65;0.60;;;;;;;20.57;46.40;101734.91;5080748;28;20379;-49
2022/05/29 08:56:43;;;;;;;2.80;0.60;;;;;;;20.59;46.05;101735.63;5083295;28;20066;-49
2022/05/29 08:59:17;;;;;;;1.45;0.70;;;;;;;20.61;46.41;101735.47;5080488;28;20330;-48
2022/05/29 09:01:55;;;;;;;1.25;0.77;;;;;;;20.61;46.34;101728.25;5080568;28;20423;-47
2022/05/29 09:04:33;;;;;;;1.10;0.65;;;;;;;20.62;45.77;101732.66;5081457;28;20051;-47
2022/05/29 09:07:03;;;;;;;1.40;0.65;;;;;;;20.63;46.00;101742.41;5078922;28;20312;-47
2022/05/29 09:09:47;;;;;;;1.98;0.80;;;;;;;20.64;45.72;101749.50;5083840;28;20051;-46
2022/05/29 09:12:30;;;;;;;0.82;0.70;;;;;;;20.64;46.05;101745.97;5085037;28;20067;-49
2022/05/29 09:15:14;;;;;;;1.10;0.63;;;;;;;20.63;45.43;101745.13;5079624;28;20048;-47
2022/05/29 09:17:51;;;;;;;0.90;0.60;;;;;;;20.62;45.44;101751.50;5077966;28;20139;-50
2022/05/29 09:20:32;;;;;;;1.52;0.70;;;;;;;20.60;45.38;101742.72;5078582;28;20123;-45
2022/05/29 09:23:04;;;;;;;1.23;0.50;;;;;;;20.59;45.66;101738.31;5079953;28;20122;-46
2022/05/29 09:25:39;;;;;;;1.42;0.73;;;;;;;20.59;46.10;101735.63;5079641;28;20047;-46
2022/05/29 09:28:29;;;;;;;1.95;0.60;;;;;;;20.58;45.84;101736.66;5080304;28;20110;-46
2022/05/29 09:31:07;;;;;;;2.33;0.57;;;;;;;20.59;46.30;101734.78;5082363;28;20040;-47
2022/05/29 09:33:36;;;;;;;2.17;0.55;;;;;;;20.60;46.21;101720.31;5084644;28;20695;-48
2022/05/29 09:36:24;;;;;;;2.25;0.77;;;;;;;20.61;46.28;101728.25;5084424;28;20048;-49
2022/05/29 09:39:35;;;;;;;2.00;0.57;;;;;;;20.64;45.91;101727.09;5078606;28;20063;-46
2022/05/29 09:42:34;;;;;;;1.08;0.57;;;;;;;20.67;46.36;101724.13;5074927;28;20404;-46
2022/05/29 09:45:22;;;;;;;1.92;0.80;;;;;;;20.69;45.71;101725.66;5078370;28;20048;-51
2022/05/29 09:50:46;;;;;;;1.48;0.65;;;;;;;20.73;45.72;101755.00;5087254;28;20044;-47
2022/05/29 09:53:17;;;;;;;1.92;0.77;;;;;;;20.73;45.82;101744.22;5085169;28;20044;-49
2022/05/29 09:55:54;;;;;;;1.58;0.60;;;;;;;20.72;45.93;101748.75;5085615;28;20113;-47
2022/05/29 09:58:26;;;;;;;0.47;0.40;;;;;;;20.72;45.19;101745.22;5083415;28;20380;-49
2022/05/29 10:01:03;;;;;;;1.15;0.63;;;;;;;20.69;45.61;101741.81;5082104;28;20434;-49
2022/05/29 10:03:39;;;;;;;1.95;0.60;;;;;;;20.67;45.63;101743.81;5079284;28;20084;-49
2022/05/29 10:06:26;;;;;;;1.10;0.57;;;;;;;20.65;45.27;101736.88;5081562;28;20094;-46
2022/05/29 10:09:10;;;;;;;0.82;0.57;;;;;;;20.64;46.15;101732.50;5080265;28;20442;-46
2022/05/29 10:11:38;;;;;;;1.55;0.60;;;;;;;20.63;45.81;101731.66;5080919;28;20307;-46
2022/05/29 10:14:30;;;;;;;0.95;0.65;;;;;;;20.61;45.83;101720.16;5084006;28;20038;-47
2022/05/29 10:16:56;;;;;;;1.52;0.70;;;;;;;20.63;45.72;101726.25;5082878;28;20086;-46
2022/05/29 10:19:37;;;;;;;1.13;0.52;;;;;;;20.63;45.76;101718.19;5082926;28;20052;-47
2022/05/29 10:22:23;;;;;;;3.22;0.70;;;;;;;20.64;45.86;101722.56;5079928;28;20044;-49
2022/05/29 10:24:50;;;;;;;3.15;0.88;;;;;;;20.67;45.85;101721.44;5076916;28;20044;-47
2022/05/29 10:27:36;;;;;;;1.05;0.45;;;;;;;20.65;45.43;101713.47;5076985;28;20128;-47
2022/05/29 10:30:13;;;;;;;1.10;0.50;;;;;;;20.67;45.67;101714.19;5078965;28;20067;-49
2022/05/29 10:32:42;;;;;;;2.00;0.55;;;;;;;20.68;45.64;101712.34;5080128;28;20052;-48
2022/05/29 10:35:29;;;;;;;0.98;0.52;;;;;;;20.69;45.70;101714.03;5079994;28;20044;-47
2022/05/29 10:37:56;;;;;;;1.17;0.60;;;;;;;20.69;45.93;101706.78;5080683;28;20064;-49
2022/05/29 10:40:31;;;;;;;1.77;0.65;;;;;;;20.69;45.56;101709.47;5080493;28;20072;-49
2022/05/29 10:43:03;;;;;;;1.60;0.70;;;;;;;20.70;45.59;101704.94;5070034;28;20041;-48
2022/05/29 10:45:46;;;;;;;1.88;0.68;;;;;;;20.72;46.08;101704.81;5074224;28;20133;-46
2022/05/29 10:48:20;;;;;;;1.50;0.50;;;;;;;20.73;45.51;101711.88;5076938;28;20074;-50
2022/05/29 10:50:59;;;;;;;2.10;0.60;;;;;;;20.73;45.35;101717.28;5080657;28;20397;-48
2022/05/29 10:53:43;;;;;;;2.80;0.70;;;;;;;20.72;45.83;101713.72;5075205;28;20396;-49
2022/05/29 10:56:25;;;;;;;;;;;;;;;20.69;45.20;101714.88;5079271;28;20127;-48
2022/05/29 10:59:10;;;;;;;1.35;0.57;;;;;;;20.71;45.78;101717.44;5077301;28;19916;-46
2022/05/29 11:05:30;;;;;;;2.38;0.70;;;;;;;20.66;45.35;101723.28;5079056;28;20039;-50
2022/05/29 11:08:06;;;;;;;1.00;0.60;;;;;;;20.65;45.85;101716.16;5062018;28;20049;-48
2022/05/29 11:10:32;;;;;;;2.90;0.90;;;;;;;20.63;45.50;101726.25;5078980;28;20041;-45
2022/05/29 11:13:39;;;;;;;2.45;1.25;;;;;;;20.62;45.72;101718.31;5079242;28;20327;-50
2022/05/29 11:16:35;;;;;;;3.00;1.75;;;;;;;20.62;45.57;101713.78;5060875;28;20063;-50
2022/05/29 11:19:39;;;;;;;3.50;1.98;;;;;;;20.60;45.58;101715.78;5075197;28;20052;-47
2022/05/29 11:22:19;;;;;;;6.03;2.25;;;;;;;20.62;45.87;101711.09;5075968;28;20132;-45
2022/05/29 11:24:45;;;;;;;4.68;2.25;;;;;;;20.62;45.47;101704.84;5076779;28;20041;-49
2022/05/29 11:27:41;;;;;;;4.85;2.42;;;;;;;20.61;45.71;101703.16;5079745;28;20308;-48
2022/05/29 11:30:15;;;;;;;3.92;2.40;;;;;;;20.62;45.72;101705.72;5082528;28;20062;-47
2022/05/29 11:33:12;;;;;;;9.27;3.33;;;;;;;20.62;46.18;101704.84;5081966;28;20047;-46
2022/05/29 11:35:53;;;;;;;5.80;3.13;;;;;;;20.62;45.61;101703.03;5072801;28;20052;-46
2022/05/29 11:38:48;;;;;;;4.97;2.70;;;;;;;20.62;45.52;101694.06;5078799;28;20138;-45
2022/05/29 11:41:21;;;;;;;;;;;;;;;20.63;46.34;101695.78;5076811;28;20114;-45
2022/05/29 11:44:01;;;;;;;8.50;3.73;;;;;;;20.65;45.87;101681.16;5078452;28;19916;-45
2022/05/29 11:52:33;;;;;;;8.20;4.55;;;;;;;20.68;45.75;101666.53;5084437;28;20145;-47
2022/05/29 11:55:25;;;;;;;6.50;4.30;;;;;;;20.70;45.81;101673.47;5085520;28;20040;-48
2022/05/29 11:58:01;;;;;;;7.57;5.15;;;;;;;20.73;46.05;101671.47;5079624;28;20055;-51
2022/05/29 12:00:42;;;;;;;9.95;5.75;;;;;;;20.75;45.78;101664.94;5083739;28;20423;-47
2022/05/29 12:03:26;;;;;;;13.40;6.75;;;;;;;20.76;46.10;101666.63;5085411;28;20346;-50
2022/05/29 12:06:05;;;;;;;12.85;8.00;;;;;;;20.78;45.53;101661.09;5082616;28;20048;-52
2022/05/29 12:08:38;;;;;;;11.88;7.15;;;;;;;20.80;46.05;101662.63;5081257;28;20066;-51
2022/05/29 12:11:18;;;;;;;11.52;7.43;;;;;;;20.80;45.54;101651.84;5080612;28;20461;-50
2022/05/29 12:13:56;;;;;;;14.90;8.65;;;;;;;20.82;45.52;101660.63;5077751;28;20045;-48
2022/05/29 12:16:28;;;;;;;17.67;9.35;;;;;;;20.84;45.94;101671.25;5078462;28;20131;-51
2022/05/29 12:18:57;;;;;;;14.10;8.43;;;;;;;20.85;45.95;101662.16;5078572;28;20109;-51
2022/05/29 12:21:34;;;;;;;16.35;8.75;;;;;;;20.85;45.52;101662.16;5078003;28;20076;-51
2022/05/29 12:24:07;;;;;;;14.55;8.63;;;;;;;20.86;45.84;101656.63;5079612;28;20412;-50
2022/05/29 12:26:41;;;;;;;15.32;8.95;;;;;;;20.88;46.16;101653.78;5075095;28;20127;-49
2022/05/29 12:29:24;;;;;;;13.50;8.15;;;;;;;20.88;45.83;101651.09;5081161;28;20131;-49